Key West International Airport
KEYW : now visible

Airfield :











YOU CAN JOIN US ON...

 
LOGIN :

Register | Disclaimer

   EN    FR    IT 

 









Legend :    VFR   Marginal VFR   IFR   Intensive IFR   Very Intensive IFR
Visi :
Ceiling :
>= 8 km
>= 3000ft
5 to 8 km
1000 to 3000 ft
1500m to 5 km
500 to 1000 ft
800 to 1500m
200 to 500 ft
< 800m
< 200 ft
Symbols :   Thunderstorms  Fog  Heavy snow  Heavy precipitations  Wind > 20 kt







- Airport Elevation : 3 ft
- IATA code : EYW


KEYW - Key West International

CURRENT METAR :
  • 200953Z AUTO 08009G19KT 10SM FEW031 FEW040 BKN055 27/22 A2992 RMK AO2 SLP131 T02670222

EXPIRED METARs :
  • 200853Z AUTO 06013G20KT 10SM CLR 27/22 A2990 RMK AO2 SLP125 T02670222 56010
  • 200753Z AUTO 05011G19KT 10SM FEW055 27/23 A2990 RMK AO2 SLP126 T02670228

TAF KEYW
Valid from the 20 at 10:00 until the 21 at 06:00 UTC


200936Z 2010/2106 05012G20KT P6SM VCSH SCT025 SCT040
FM201900 07015G25KT P6SM SCT025 SCT040
FM210400 08020G25KT P6SM VCTS SCT025CB BKN040
No reported NOTAMs for that airfield.



MET'MAP, your aeronautical weather chart ! - Copyright ORBIFLY December 2007 - Disclaimer

ORBIFLY MET'MAP TEAM :

Programming & Development : Alexandra Zaïnal
Concept & Development : Baudouin d'Aumeries
Co-Development & Prog : Marc-Olivier Méhu
Technical & hardware support : Manuel Goepfert

Contact : metmap@orbifly.com




SOURCES & CREDITS :

   NOAA       Earth
Advisory